createdAt,value
2022-12-19T00:01:09.793Z,100038.88
2022-12-19T00:03:38.350Z,100027.72
2022-12-19T00:06:07.380Z,100034.59
2022-12-19T00:08:36.288Z,100042.28
2022-12-19T00:11:06.252Z,100047.44
2022-12-19T00:13:40.877Z,100045.78
2022-12-19T00:16:13.185Z,100047.66
2022-12-19T00:18:42.623Z,100047.81
2022-12-19T00:21:12.974Z,100063.38
2022-12-19T00:23:41.536Z,100066.03
2022-12-19T00:26:13.252Z,100052.94
2022-12-19T00:28:42.984Z,100061.34
2022-12-19T00:31:11.888Z,100066.97
2022-12-19T00:33:43.309Z,100059.63
2022-12-19T00:36:13.778Z,100061.44
2022-12-19T00:38:43.635Z,100056.88
2022-12-19T00:41:15.485Z,100053.41
2022-12-19T00:43:44.994Z,100057.63
2022-12-19T00:46:15.716Z,100058.72
2022-12-19T00:48:44.393Z,100039.16
2022-12-19T00:51:15.054Z,100039.16
2022-12-19T00:53:44.476Z,100028.19
2022-12-19T00:56:16.279Z,100031.69
2022-12-19T00:58:47.172Z,100032.72
2022-12-19T01:01:18.482Z,100031.56
2022-12-19T01:04:18.699Z,100026.66
2022-12-19T01:06:36.266Z,100020.72
2022-12-19T01:09:05.540Z,100004.00
2022-12-19T01:11:52.775Z,100010.28
2022-12-19T01:14:23.248Z,100004.81
2022-12-19T01:16:52.288Z,100001.56
2022-12-19T01:19:21.130Z,99992.09
2022-12-19T01:21:49.691Z,99998.25
2022-12-19T01:24:18.958Z,100007.59
2022-12-19T01:26:49.303Z,100017.72
2022-12-19T01:29:17.909Z,99986.81
2022-12-19T01:31:46.586Z,100016.63
2022-12-19T01:34:15.344Z,100023.91
2022-12-19T01:36:43.942Z,100021.75
2022-12-19T01:39:12.525Z,100008.13
2022-12-19T01:41:41.162Z,100001.38
2022-12-19T01:44:11.140Z,100001.59
2022-12-19T01:46:42.760Z,100000.53
2022-12-19T01:49:15.918Z,100003.66
2022-12-19T01:51:48.191Z,99995.03
2022-12-19T01:54:19.076Z,99988.28
2022-12-19T01:56:50.843Z,99978.44
2022-12-19T01:59:23.016Z,99976.59
2022-12-19T02:01:53.244Z,99973.22
2022-12-19T02:04:22.364Z,99962.66
2022-12-19T02:06:51.645Z,99965.09
2022-12-19T02:09:20.347Z,99962.75
2022-12-19T02:11:49.058Z,99943.19
2022-12-19T02:14:17.626Z,99960.50
2022-12-19T02:16:52.256Z,99954.25
2022-12-19T02:19:49.468Z,99960.09
2022-12-19T02:22:21.982Z,99951.50
2022-12-19T02:25:18.801Z,99955.56
2022-12-19T02:28:06.485Z,99955.28
2022-12-19T02:30:59.103Z,99971.47
2022-12-19T02:33:35.834Z,99970.31
2022-12-19T02:36:08.614Z,99968.09
2022-12-19T02:38:41.914Z,99956.78
2022-12-19T02:41:18.601Z,99975.75
2022-12-19T02:43:49.003Z,99963.84
2022-12-19T02:46:21.505Z,99953.81
2022-12-19T02:48:50.638Z,99948.47
2022-12-19T02:51:19.295Z,99943.13
2022-12-19T02:53:47.949Z,99947.75
2022-12-19T02:56:30.788Z,99943.75
2022-12-19T02:59:07.140Z,99953.38
2022-12-19T03:01:45.395Z,99943.63
2022-12-19T03:04:25.535Z,99952.34
2022-12-19T03:06:57.657Z,99950.63
2022-12-19T03:09:33.299Z,99966.00
2022-12-19T03:12:06.600Z,99969.47
2022-12-19T03:14:35.883Z,99966.16
2022-12-19T03:17:07.869Z,99942.94
2022-12-19T03:19:37.250Z,99935.66
2022-12-19T03:22:06.098Z,99932.56
2022-12-19T03:24:34.746Z,99941.94
2022-12-19T03:27:06.115Z,99962.09
2022-12-19T03:29:38.464Z,99966.91
2022-12-19T03:32:12.104Z,99972.25
2022-12-19T03:34:43.200Z,99969.56
2022-12-19T03:37:15.363Z,99973.66
2022-12-19T03:39:47.199Z,99977.34
2022-12-19T03:42:34.681Z,99973.34
2022-12-19T03:45:05.456Z,99978.94
2022-12-19T03:47:37.159Z,99989.63
2022-12-19T03:50:06.699Z,99980.78
2022-12-19T03:52:39.659Z,99973.78
2022-12-19T03:55:13.326Z,99974.00
2022-12-19T03:57:44.417Z,99976.19
2022-12-19T04:00:16.714Z,99960.47
2022-12-19T04:02:48.553Z,99974.97
2022-12-19T04:05:20.816Z,99979.13
2022-12-19T04:07:49.527Z,99976.97
2022-12-19T04:10:20.055Z,99983.84
2022-12-19T04:12:52.745Z,99980.84
2022-12-19T04:15:22.686Z,99980.13
2022-12-19T04:17:55.816Z,99979.09
2022-12-19T04:20:26.775Z,99990.81
2022-12-19T04:22:59.295Z,99992.59
2022-12-19T04:25:30.510Z,99985.72
2022-12-19T04:28:03.641Z,99979.16
2022-12-19T04:30:36.750Z,99988.41
2022-12-19T04:33:07.977Z,99989.94
2022-12-19T04:35:37.054Z,99982.25
2022-12-19T04:38:05.785Z,99994.84
2022-12-19T04:40:40.936Z,99993.72
2022-12-19T04:43:10.381Z,99989.09
2022-12-19T04:45:39.053Z,99996.34
2022-12-19T04:48:09.243Z,99994.78
2022-12-19T04:50:37.881Z,99984.28
2022-12-19T04:53:07.422Z,99984.84
2022-12-19T04:55:36.197Z,99983.16
2022-12-19T04:58:05.737Z,99977.69
2022-12-19T05:00:34.450Z,99971.63
2022-12-19T05:03:03.165Z,99979.00
2022-12-19T05:05:33.187Z,99967.81
2022-12-19T05:08:01.831Z,99967.56
2022-12-19T05:10:30.478Z,99964.03
2022-12-19T05:12:59.147Z,99963.06
2022-12-19T05:15:27.715Z,99970.03
2022-12-19T05:17:56.439Z,99957.91
2022-12-19T05:20:25.080Z,99947.69
2022-12-19T05:22:55.079Z,99946.28
2022-12-19T05:25:23.716Z,99945.81
2022-12-19T05:27:52.316Z,99934.16
2022-12-19T05:30:23.274Z,99932.44
2022-12-19T05:32:51.906Z,99931.03
2022-12-19T05:35:20.599Z,99921.94
2022-12-19T05:37:49.207Z,99927.22
2022-12-19T05:40:19.164Z,99937.00
2022-12-19T05:42:47.796Z,99937.47
2022-12-19T05:45:16.564Z,99941.06
2022-12-19T05:47:46.666Z,99951.91
2022-12-19T05:50:15.745Z,99957.78
2022-12-19T05:52:44.801Z,99947.97
2022-12-19T05:55:13.568Z,99936.63
2022-12-19T05:57:43.592Z,99946.50
2022-12-19T06:00:13.550Z,99937.41
2022-12-19T06:02:42.266Z,99929.81
2022-12-19T06:05:10.923Z,99927.81
2022-12-19T06:07:39.541Z,99921.88
2022-12-19T06:10:08.869Z,99921.75
2022-12-19T06:12:37.485Z,99925.00
2022-12-19T06:15:08.676Z,99920.47
2022-12-19T06:17:37.396Z,99920.34
2022-12-19T06:20:07.372Z,99916.97
2022-12-19T06:22:36.270Z,99922.44
2022-12-19T06:25:05.543Z,99924.66
2022-12-19T06:27:34.496Z,99923.88
2022-12-19T06:30:03.193Z,99919.75
2022-12-19T06:32:37.722Z,99928.75
2022-12-19T06:35:07.961Z,99924.09
2022-12-19T06:37:39.308Z,99926.91
2022-12-19T06:40:30.828Z,99924.78
2022-12-19T06:42:58.454Z,99923.38
2022-12-19T06:45:27.076Z,99929.59
2022-12-19T06:47:58.073Z,99923.50
2022-12-19T06:50:28.521Z,99915.91
2022-12-19T06:52:57.496Z,99920.25
2022-12-19T06:55:26.631Z,99919.19
2022-12-19T06:57:55.284Z,99916.72
2022-12-19T07:00:23.936Z,99920.38
2022-12-19T07:02:53.690Z,99915.34
2022-12-19T07:05:23.963Z,99918.97
2022-12-19T07:07:52.606Z,99915.00
2022-12-19T07:10:21.347Z,99918.03
2022-12-19T07:12:50.115Z,99925.50
2022-12-19T07:15:18.738Z,99920.69
2022-12-19T07:17:47.518Z,99917.91
2022-12-19T07:20:17.413Z,99916.03
2022-12-19T07:22:47.883Z,99913.22
2022-12-19T07:25:17.569Z,99914.63
2022-12-19T07:27:46.415Z,99917.81
2022-12-19T07:30:15.222Z,99914.28
2022-12-19T07:32:43.924Z,99908.22
2022-12-19T07:35:12.724Z,99918.72
2022-12-19T07:37:41.630Z,99917.44
2022-12-19T07:40:12.699Z,99918.59
2022-12-19T07:42:41.341Z,99918.38
2022-12-19T07:45:10.715Z,99926.91
2022-12-19T07:47:39.399Z,99920.34
2022-12-19T07:50:08.421Z,99922.09
2022-12-19T07:52:37.002Z,99929.56
2022-12-19T07:55:06.375Z,99918.22
2022-12-19T07:57:36.519Z,99931.56
2022-12-19T08:00:06.503Z,99927.56
2022-12-19T08:02:35.738Z,99927.81
2022-12-19T08:05:04.572Z,99924.06
2022-12-19T08:07:33.436Z,99915.19
2022-12-19T08:10:02.081Z,99909.19
2022-12-19T08:12:30.686Z,99906.78
2022-12-19T08:15:00.664Z,99915.19
2022-12-19T08:17:29.393Z,99915.53
2022-12-19T08:19:58.406Z,99927.09
2022-12-19T08:22:27.049Z,99929.41
2022-12-19T08:24:55.626Z,99931.97
2022-12-19T08:27:24.252Z,99928.00
2022-12-19T08:29:53.079Z,99936.19
2022-12-19T08:32:23.115Z,99931.97
2022-12-19T08:34:51.931Z,99929.06
2022-12-19T08:37:20.546Z,99938.41
2022-12-19T08:39:49.270Z,99935.63
2022-12-19T08:42:17.963Z,99944.59
2022-12-19T08:44:47.009Z,99941.91
2022-12-19T08:47:15.852Z,99940.91
2022-12-19T08:49:58.656Z,99939.66
2022-12-19T08:52:57.131Z,99938.25
2022-12-19T08:55:43.469Z,99942.00
2022-12-19T08:58:12.151Z,99930.16
2022-12-19T09:00:40.816Z,99934.28
2022-12-19T09:03:10.152Z,99918.09
2022-12-19T09:06:03.827Z,99919.94
2022-12-19T09:08:35.605Z,99937.88
2022-12-19T09:11:06.293Z,99930.16
2022-12-19T09:13:35.345Z,99925.72
2022-12-19T09:16:06.997Z,99915.16
2022-12-19T09:18:35.915Z,99907.25
2022-12-19T09:21:07.925Z,99903.00
2022-12-19T09:23:45.523Z,99915.00
2022-12-19T09:26:16.585Z,99911.22
2022-12-19T09:28:47.700Z,99911.28
2022-12-19T09:31:18.521Z,99909.38
2022-12-19T09:33:47.750Z,99900.66
2022-12-19T09:36:19.285Z,99913.94
2022-12-19T09:38:48.249Z,99904.16
2022-12-19T09:41:38.620Z,99909.44
2022-12-19T09:44:16.669Z,99906.25
2022-12-19T09:46:50.744Z,99905.13
2022-12-19T09:49:21.994Z,99907.19
2022-12-19T09:51:57.815Z,99906.81
2022-12-19T09:54:30.219Z,99919.28
2022-12-19T09:57:02.829Z,99910.63
2022-12-19T09:59:41.225Z,99905.47
2022-12-19T10:02:27.291Z,99902.00
2022-12-19T10:05:18.871Z,99895.38
2022-12-19T10:08:07.729Z,99883.56
2022-12-19T10:12:39.688Z,99881.44
2022-12-19T10:13:44.979Z,99870.63
2022-12-19T10:16:17.732Z,99877.78
2022-12-19T10:18:56.491Z,99886.22
2022-12-19T10:21:58.899Z,99878.88
2022-12-19T10:24:36.963Z,99863.84
2022-12-19T10:27:13.047Z,99855.44
2022-12-19T10:29:53.049Z,99856.16
2022-12-19T10:32:26.871Z,99856.97
2022-12-19T10:34:56.074Z,99848.97
2022-12-19T10:37:35.202Z,99854.94
2022-12-19T10:40:24.740Z,99857.66
2022-12-19T10:42:59.591Z,99851.94
2022-12-19T10:45:44.137Z,99846.38
2022-12-19T10:48:18.517Z,99845.16
2022-12-19T10:50:49.333Z,99837.84
2022-12-19T10:53:18.429Z,99837.84
2022-12-19T10:55:49.877Z,99847.75
2022-12-19T10:58:21.301Z,99853.84
2022-12-19T11:01:10.837Z,99832.13
2022-12-19T11:03:41.670Z,99833.75
2022-12-19T11:06:46.329Z,99840.53
2022-12-19T11:09:19.938Z,99826.97
2022-12-19T11:16:07.306Z,99810.50
2022-12-19T11:20:00.628Z,99812.97
2022-12-19T11:23:54.216Z,99817.31
2022-12-19T11:29:38.360Z,99811.19
2022-12-19T11:30:35.712Z,99810.34
2022-12-19T11:30:35.949Z,99816.34
2022-12-19T11:30:46.432Z,99808.59
2022-12-19T11:32:31.532Z,99803.16
2022-12-19T11:34:39.011Z,99787.50
2022-12-19T11:37:17.040Z,99786.72
2022-12-19T11:39:54.519Z,99783.00
2022-12-19T11:42:25.994Z,99775.38
2022-12-19T11:45:09.162Z,99777.94
2022-12-19T11:47:41.756Z,99775.19
2022-12-19T11:50:19.796Z,99761.47
2022-12-19T11:53:11.568Z,99763.16
2022-12-19T11:55:47.434Z,99754.94
2022-12-19T11:58:16.101Z,99751.34
2022-12-19T12:00:58.652Z,99752.31
2022-12-19T12:04:01.047Z,99753.25
2022-12-19T12:06:34.630Z,99759.56
2022-12-19T12:12:26.592Z,99746.63
2022-12-19T12:18:03.080Z,99754.59
2022-12-19T12:26:47.187Z,99748.78
2022-12-19T12:30:05.550Z,99750.25
2022-12-19T12:31:08.169Z,99754.44
2022-12-19T12:31:42.403Z,99761.44
2022-12-19T12:31:58.825Z,99735.44
2022-12-19T12:32:02.054Z,99753.59
2022-12-19T12:35:31.527Z,99757.88
2022-12-19T12:38:43.013Z,99743.84
2022-12-19T12:41:21.009Z,99731.44
2022-12-19T12:44:02.817Z,99735.78
2022-12-19T12:46:35.544Z,99733.91
2022-12-19T12:49:06.152Z,99726.00
2022-12-19T12:51:36.887Z,99731.28
2022-12-19T12:54:07.805Z,99726.69
2022-12-19T12:56:37.623Z,99728.84
2022-12-19T12:59:24.419Z,99724.25
2022-12-19T13:01:54.894Z,99717.31
2022-12-19T13:04:29.495Z,99734.16
2022-12-19T13:07:27.602Z,99723.22
2022-12-19T13:10:08.664Z,99717.75
2022-12-19T13:13:02.782Z,99718.78
2022-12-19T13:15:42.596Z,99700.84
2022-12-19T13:18:38.473Z,99710.97
2022-12-19T13:21:09.262Z,99711.47
2022-12-19T13:23:47.600Z,99704.03
2022-12-19T13:26:45.622Z,99718.13
2022-12-19T13:29:40.073Z,99718.28
2022-12-19T13:32:14.194Z,99718.03
2022-12-19T13:34:58.619Z,99710.16
2022-12-19T13:39:49.333Z,99713.63
2022-12-19T13:40:34.502Z,99719.97
2022-12-19T13:43:30.950Z,99708.00
2022-12-19T13:46:01.510Z,99703.63
2022-12-19T13:48:33.108Z,99704.47
2022-12-19T13:51:05.690Z,99715.63
2022-12-19T13:53:34.495Z,99720.28
2022-12-19T13:56:06.303Z,99728.41
2022-12-19T13:58:38.299Z,99726.63
2022-12-19T14:01:15.093Z,99730.31
2022-12-19T14:03:51.656Z,99726.78
2022-12-19T14:06:22.662Z,99726.25
2022-12-19T14:09:58.609Z,99735.09
2022-12-19T14:12:26.507Z,99724.13
2022-12-19T14:15:12.841Z,99720.84
2022-12-19T14:17:48.634Z,99727.13
2022-12-19T14:21:14.795Z,99735.56
2022-12-19T14:23:11.682Z,99732.16
2022-12-19T14:28:14.470Z,99727.50
2022-12-19T14:28:39.380Z,99731.56
2022-12-19T14:31:15.638Z,99740.88
2022-12-19T14:34:04.694Z,99742.13
2022-12-19T14:36:35.740Z,99742.41
2022-12-19T14:39:27.055Z,99726.00
2022-12-19T14:42:12.359Z,99727.00
2022-12-19T14:53:27.769Z,99737.88
2022-12-19T14:54:15.866Z,99726.06
2022-12-19T14:54:21.704Z,99740.25
2022-12-19T14:54:27.383Z,99729.34
2022-12-19T14:56:32.112Z,99727.84
2022-12-19T14:59:00.637Z,99721.13
2022-12-19T15:01:32.680Z,99726.91
2022-12-19T15:04:47.763Z,99722.97
2022-12-19T15:07:08.448Z,99728.28
2022-12-19T15:11:04.448Z,99717.41
2022-12-19T15:14:51.085Z,99712.16
2022-12-19T15:15:59.254Z,99735.13
2022-12-19T15:18:39.328Z,99716.94
2022-12-19T15:21:12.473Z,99715.75
2022-12-19T15:23:41.224Z,99700.81
2022-12-19T15:26:14.029Z,99709.38
2022-12-19T15:28:44.240Z,99710.63
2022-12-19T15:31:24.305Z,99717.72
2022-12-19T15:36:43.592Z,99708.97
2022-12-19T15:39:12.275Z,99708.31
2022-12-19T15:41:40.960Z,99708.31
2022-12-19T15:44:11.331Z,99706.69
2022-12-19T15:46:46.459Z,99707.94
2022-12-19T15:49:19.950Z,99703.34
2022-12-19T15:51:51.622Z,99707.56
2022-12-19T15:57:11.843Z,99709.44
2022-12-19T15:59:45.301Z,99703.78
2022-12-19T16:02:18.189Z,99701.34
2022-12-19T16:04:48.965Z,99712.75
2022-12-19T16:07:19.058Z,99707.88
2022-12-19T16:09:48.354Z,99702.44
2022-12-19T16:12:18.368Z,99711.44
2022-12-19T16:14:49.360Z,99699.09
2022-12-19T16:17:21.256Z,99697.59
2022-12-19T16:19:51.572Z,99703.28
2022-12-19T16:22:22.302Z,99700.44
2022-12-19T16:24:51.609Z,99696.75
2022-12-19T16:27:25.711Z,99691.88
2022-12-19T16:29:55.578Z,99690.78
2022-12-19T16:32:25.357Z,99689.50
2022-12-19T16:34:55.489Z,99688.19
2022-12-19T16:37:30.246Z,99679.25
2022-12-19T16:40:01.923Z,99682.88
2022-12-19T16:42:30.889Z,99672.03
2022-12-19T16:44:59.496Z,99677.47
2022-12-19T16:47:28.203Z,99681.81
2022-12-19T16:49:58.239Z,99679.97
2022-12-19T16:52:26.834Z,99683.91
2022-12-19T16:54:55.470Z,99678.19
2022-12-19T16:57:24.158Z,99689.22
2022-12-19T16:59:52.783Z,99688.53
2022-12-19T17:02:38.340Z,99669.09
2022-12-19T17:05:15.850Z,99671.00
2022-12-19T17:07:44.623Z,99680.13
2022-12-19T17:10:13.541Z,99674.56
2022-12-19T17:12:42.912Z,99675.13
2022-12-19T17:15:19.723Z,99674.56
2022-12-19T17:17:48.684Z,99670.34
2022-12-19T17:20:20.011Z,99681.09
2022-12-19T17:22:49.103Z,99687.22
2022-12-19T17:25:21.140Z,99677.44
2022-12-19T17:27:50.002Z,99675.41
2022-12-19T17:30:19.720Z,99674.06
2022-12-19T17:32:49.862Z,99681.38
2022-12-19T17:35:27.524Z,99679.22
2022-12-19T17:37:58.115Z,99685.72
2022-12-19T17:40:28.427Z,99690.75
2022-12-19T17:42:57.689Z,99692.78
2022-12-19T17:45:27.524Z,99693.88
2022-12-19T17:48:02.315Z,99699.44
2022-12-19T17:50:36.207Z,99707.59
2022-12-19T17:53:04.907Z,99699.03
2022-12-19T17:55:33.769Z,99701.06
2022-12-19T17:58:02.448Z,99701.22
2022-12-19T18:00:33.112Z,99701.34
2022-12-19T18:03:05.715Z,99700.13
2022-12-19T18:05:37.064Z,99707.72
2022-12-19T18:08:08.178Z,99691.97
2022-12-19T18:10:36.874Z,99693.75
2022-12-19T18:13:05.619Z,99690.25
2022-12-19T18:15:34.304Z,99688.03
2022-12-19T18:18:02.937Z,99683.03
2022-12-19T18:20:33.455Z,99684.53
2022-12-19T18:23:03.797Z,99701.50
2022-12-19T18:25:35.145Z,99698.63
2022-12-19T18:28:03.876Z,99706.09
2022-12-19T18:30:32.606Z,99711.53
2022-12-19T18:33:02.568Z,99701.78
2022-12-19T18:35:34.726Z,99703.13
2022-12-19T18:38:06.784Z,99709.78
2022-12-19T18:40:35.409Z,99702.19
2022-12-19T18:43:04.027Z,99705.97
2022-12-19T18:45:36.617Z,99697.66
2022-12-19T18:48:08.925Z,99712.84
2022-12-19T18:50:37.587Z,99703.38
2022-12-19T18:53:10.928Z,99692.09
2022-12-19T18:55:39.691Z,99696.06
2022-12-19T18:58:08.385Z,99698.63
2022-12-19T19:00:39.440Z,99703.50
2022-12-19T19:03:13.133Z,99705.25
2022-12-19T19:05:42.164Z,99698.75
2022-12-19T19:08:17.557Z,99686.28
2022-12-19T19:10:48.006Z,99694.56
2022-12-19T19:13:20.445Z,99700.13
2022-12-19T19:15:50.693Z,99694.81
2022-12-19T19:18:23.156Z,99700.41
2022-12-19T19:21:00.509Z,99685.88
2022-12-19T19:23:34.713Z,99694.41
2022-12-19T19:26:03.522Z,99685.84
2022-12-19T19:28:32.135Z,99680.97
2022-12-19T19:31:01.823Z,99681.94
2022-12-19T19:33:33.555Z,99678.53
2022-12-19T19:36:11.689Z,99682.19
2022-12-19T19:38:43.885Z,99678.13
2022-12-19T19:41:12.845Z,99677.59
2022-12-19T19:43:41.492Z,99679.59
2022-12-19T19:46:10.191Z,99681.94
2022-12-19T19:48:41.277Z,99681.38
2022-12-19T19:51:10.088Z,99674.31
2022-12-19T19:53:40.281Z,99678.13
2022-12-19T19:56:10.887Z,99675.16
2022-12-19T19:58:39.757Z,99673.50
2022-12-19T20:01:09.403Z,99678.25
2022-12-19T20:03:39.860Z,99674.59
2022-12-19T20:06:09.600Z,99668.91
2022-12-19T20:08:40.118Z,99665.50
2022-12-19T20:11:10.941Z,99665.34
2022-12-19T20:13:39.651Z,99661.59
2022-12-19T20:16:11.080Z,99665.22
2022-12-19T20:18:42.441Z,99668.63
2022-12-19T20:21:13.938Z,99664.25
2022-12-19T20:23:43.990Z,99672.41
2022-12-19T20:26:16.190Z,99675.69
2022-12-19T20:28:48.999Z,99683.25
2022-12-19T20:31:19.534Z,99684.06
2022-12-19T20:33:49.171Z,99675.91
2022-12-19T20:36:18.301Z,99692.22
2022-12-19T20:38:47.293Z,99688.94
2022-12-19T20:41:17.527Z,99692.22
2022-12-19T20:43:47.869Z,99689.09
2022-12-19T20:46:18.074Z,99692.06
2022-12-19T20:48:47.610Z,99684.88
2022-12-19T20:51:17.929Z,99682.72
2022-12-19T20:53:46.827Z,99675.25
2022-12-19T20:56:18.590Z,99679.06
2022-12-19T20:58:47.492Z,99678.91
2022-12-19T21:01:18.263Z,99685.72
2022-12-19T21:03:48.547Z,99681.94
2022-12-19T21:06:19.709Z,99678.13
2022-12-19T21:08:48.501Z,99689.25
2022-12-19T21:11:18.736Z,99692.50
2022-12-19T21:13:47.451Z,99693.03
2022-12-19T21:16:18.435Z,99689.25
2022-12-19T21:18:48.340Z,99680.56
2022-12-19T21:21:19.006Z,99690.22
2022-12-19T21:23:48.029Z,99690.88
2022-12-19T21:26:19.021Z,99680.56
2022-12-19T21:28:48.860Z,99681.53
2022-12-19T21:31:20.571Z,99690.34
2022-12-19T21:33:51.058Z,99699.44
2022-12-19T21:36:22.621Z,99693.59
2022-12-19T21:38:53.605Z,99689.41
2022-12-19T21:41:23.702Z,99692.78
2022-12-19T21:43:54.256Z,99682.47
2022-12-19T21:46:24.904Z,99682.19
2022-12-19T21:48:54.885Z,99687.19
2022-12-19T21:51:25.987Z,99680.56
2022-12-19T21:53:55.814Z,99677.31
2022-12-19T21:56:27.180Z,99671.06
2022-12-19T21:58:57.420Z,99678.25
2022-12-19T22:01:26.675Z,99683.16
2022-12-19T22:03:59.633Z,99691.69
2022-12-19T22:06:30.221Z,99698.84
2022-12-19T22:08:59.000Z,99703.34
2022-12-19T22:11:30.166Z,99693.47
2022-12-19T22:14:00.159Z,99694.56
2022-12-19T22:16:28.978Z,99694.56
2022-12-19T22:18:57.836Z,99698.22
2022-12-19T22:21:26.887Z,99699.00
2022-12-19T22:23:57.931Z,99693.59
2022-12-19T22:26:27.445Z,99700.53
2022-12-19T22:28:58.205Z,99694.44
2022-12-19T22:31:28.448Z,99691.72
2022-12-19T22:33:58.848Z,99695.91
2022-12-19T22:36:29.219Z,99702.69
2022-12-19T22:38:58.870Z,99701.91
2022-12-19T22:41:28.260Z,99706.34
2022-12-19T22:43:58.231Z,99705.56
2022-12-19T22:46:29.379Z,99692.94
2022-12-19T22:49:00.429Z,99694.28
2022-12-19T22:51:30.517Z,99692.53
2022-12-19T22:53:59.546Z,99694.28
2022-12-19T22:56:29.853Z,99684.00
2022-12-19T22:59:02.613Z,99677.59
2022-12-19T23:01:33.296Z,99673.66
2022-12-19T23:04:03.580Z,99672.97
2022-12-19T23:06:33.732Z,99675.16
2022-12-19T23:09:03.468Z,99679.22
2022-12-19T23:11:34.515Z,99687.63
2022-12-19T23:14:05.855Z,99695.25
2022-12-19T23:16:34.674Z,99684.66
2022-12-19T23:19:03.509Z,99680.31
2022-12-19T23:21:32.207Z,99684.13
2022-12-19T23:24:00.886Z,99685.59
2022-12-19T23:26:30.895Z,99672.03
2022-12-19T23:29:00.848Z,99663.34
2022-12-19T23:31:31.498Z,99666.22
2022-12-19T23:34:00.910Z,99672.16
2022-12-19T23:37:09.155Z,99673.25
2022-12-19T23:39:18.853Z,99676.25
2022-12-19T23:41:47.537Z,99663.34
2022-12-19T23:44:16.414Z,99663.06
2022-12-19T23:46:46.485Z,99672.97
2022-12-19T23:49:15.672Z,99668.78
2022-12-19T23:51:44.317Z,99672.03
2022-12-19T23:54:12.978Z,99672.16
2022-12-19T23:56:41.571Z,99659.13
2022-12-19T23:59:10.147Z,99665.13
